Viking, Minnesota
Current Conditions -  °F | °C
As of 2:55 PM on Saturday 20 Dec 2014 (Local Time) from KTVF Reporting Station
Overcast Overcast  
Wind Chill: 19°   Ceiling: 500
Heat Index: 30°   Visibility: 3mi
Dew Point: 28°   Wind: 16mph
Humidity: 93%   Direction: 190°S
Pressure: 29.95"   Gusts: NA
Location:  48.22°N, 96.41°W
Report Text: KTVF 202055Z AUTO 19014KT 3SM OVC005 M01/M02 A2995 RMK AO1 57017
Loading
Personal Weather Stations






























Interactive Weather Map New forecast layout! Learn more

10-Day Weather Forecast

Advertisements
Track Severe Weather on mobile